Time;durP1;ratioP1;P1;durP2;ratioP2;P2;SDS_P1;SDS_P2;PMS_P1;PMS_P2;Temp;Humidity;BMP_temperature;BMP_pressure;BME280_temperature;BME280_humidity;BME280_pressure;Samples;Min_cycle;Max_cycle;Signal;HPM_P1;HPM_P2
2023/12/08 00:03:11;;;;;;;36.88;21.55;;;;;;;2.12;100.00;101329.88;10437926;28;20055;-59
2023/12/08 00:08:34;;;;;;;39.75;21.80;;;;;;;2.12;100.00;101327.31;10428304;28;20053;-59
2023/12/08 00:13:55;;;;;;;37.40;21.00;;;;;;;2.09;100.00;101310.25;10428879;28;20136;-58
2023/12/08 00:19:17;;;;;;;38.38;20.40;;;;;;;2.13;100.00;101295.84;10434347;28;20068;-58
2023/12/08 00:24:39;;;;;;;37.38;20.70;;;;;;;2.09;100.00;101274.53;10430910;28;20135;-59
2023/12/08 00:30:00;;;;;;;35.58;20.67;;;;;;;2.10;100.00;101252.44;10424190;28;20828;-60
2023/12/08 00:35:22;;;;;;;33.80;20.92;;;;;;;2.14;100.00;101252.50;10426153;28;20056;-58
2023/12/08 00:40:44;;;;;;;36.97;20.80;;;;;;;2.14;100.00;101233.78;10423637;28;20045;-59
2023/12/08 00:46:06;;;;;;;33.65;20.23;;;;;;;2.22;100.00;101233.00;10429325;28;20053;-58
2023/12/08 00:51:27;;;;;;;35.88;20.25;;;;;;;2.20;100.00;101234.69;10433461;28;20045;-59
2023/12/08 00:56:49;;;;;;;37.70;20.42;;;;;;;2.19;100.00;101212.56;10435182;28;20075;-58
2023/12/08 01:02:11;;;;;;;31.15;18.85;;;;;;;2.21;100.00;101177.69;10430219;28;20037;-59
2023/12/08 01:07:36;;;;;;;30.70;18.67;;;;;;;2.20;100.00;101155.56;10404188;28;20099;-59
2023/12/08 01:13:01;;;;;;;33.95;19.17;;;;;;;2.21;100.00;101139.41;10426873;28;20045;-58
2023/12/08 01:18:23;;;;;;;29.73;17.45;;;;;;;2.20;100.00;101137.69;10491185;22;20572;-61
2023/12/08 01:23:45;;;;;;;31.83;18.95;;;;;;;2.22;100.00;101137.69;10474191;28;20045;-61
2023/12/08 01:29:07;;;;;;;29.52;17.20;;;;;;;2.21;100.00;101134.31;10474933;28;20052;-61
2023/12/08 01:34:28;;;;;;;27.77;17.17;;;;;;;2.19;100.00;101140.22;10472702;28;20255;-61
2023/12/08 01:39:50;;;;;;;31.83;17.10;;;;;;;2.20;100.00;101147.06;10473936;28;20581;-61
2023/12/08 01:45:11;;;;;;;30.98;17.08;;;;;;;2.16;100.00;101146.19;10485873;28;20052;-61
2023/12/08 01:50:34;;;;;;;26.08;16.33;;;;;;;2.16;100.00;101130.00;10479731;28;20505;-61
2023/12/08 01:55:56;;;;;;;28.85;16.42;;;;;;;2.13;100.00;101123.16;10493058;28;20057;-62
2023/12/08 02:01:18;;;;;;;28.58;17.13;;;;;;;2.14;100.00;101119.78;10471310;28;20048;-61
2023/12/08 02:06:39;;;;;;;32.20;16.98;;;;;;;2.13;100.00;101109.56;10476533;28;20052;-61
2023/12/08 02:12:01;;;;;;;26.60;16.05;;;;;;;2.13;100.00;101074.69;10473683;28;20488;-61
2023/12/08 02:17:28;;;;;;;26.58;15.85;;;;;;;2.14;100.00;101061.09;10479789;28;20060;-60
2023/12/08 02:22:49;;;;;;;27.05;15.43;;;;;;;2.14;100.00;101071.31;10472447;28;20040;-61
2023/12/08 02:28:11;;;;;;;24.75;14.95;;;;;;;2.16;100.00;101073.88;10479999;28;20084;-61
2023/12/08 02:33:37;;;;;;;27.40;14.52;;;;;;;2.18;100.00;101082.41;10478577;28;20493;-61
2023/12/08 02:39:01;;;;;;;26.27;15.15;;;;;;;2.22;100.00;101079.84;10479268;28;20068;-61
2023/12/08 02:44:23;;;;;;;26.65;14.88;;;;;;;2.21;100.00;101078.16;10484331;28;20098;-61
2023/12/08 02:49:44;;;;;;;22.73;14.10;;;;;;;2.20;100.00;101071.34;10477336;28;20062;-62
2023/12/08 02:55:06;;;;;;;23.10;13.57;;;;;;;2.17;100.00;101061.13;10476945;28;20048;-61
2023/12/08 03:00:28;;;;;;;24.92;14.40;;;;;;;2.17;100.00;101040.69;10478900;28;20044;-61
2023/12/08 03:05:50;;;;;;;24.70;14.02;;;;;;;2.21;100.00;101033.91;10476338;28;20049;-61
2023/12/08 03:11:12;;;;;;;22.10;13.68;;;;;;;2.21;100.00;101027.13;10481721;28;20068;-62
2023/12/08 03:16:33;;;;;;;22.25;13.63;;;;;;;2.21;100.00;101022.03;10478464;28;20458;-61
2023/12/08 03:21:55;;;;;;;23.80;13.32;;;;;;;2.17;99.98;101019.41;10471671;28;20566;-61
2023/12/08 03:27:17;;;;;;;22.55;14.10;;;;;;;2.16;100.00;101008.38;10477550;28;20056;-61
2023/12/08 03:32:38;;;;;;;21.00;13.48;;;;;;;2.20;99.85;101010.09;10477101;28;20053;-61
2023/12/08 03:38:00;;;;;;;23.50;14.35;;;;;;;2.21;100.00;101011.81;10472607;28;20489;-61
2023/12/08 03:43:22;;;;;;;24.92;14.52;;;;;;;2.21;100.00;101006.69;10470986;28;20393;-61
2023/12/08 03:48:44;;;;;;;23.23;13.80;;;;;;;2.17;100.00;101011.75;10476249;28;20402;-61
2023/12/08 03:54:06;;;;;;;23.13;13.30;;;;;;;2.18;100.00;101014.31;10476925;28;20389;-61
2023/12/08 03:59:27;;;;;;;21.67;13.88;;;;;;;2.20;100.00;101009.25;10473299;28;20646;-61
2023/12/08 04:04:49;;;;;;;22.70;13.80;;;;;;;2.20;100.00;101010.09;10462802;28;20089;-61
2023/12/08 04:10:10;;;;;;;22.83;13.50;;;;;;;2.17;99.51;101012.63;10477988;28;20051;-61
2023/12/08 04:15:32;;;;;;;24.17;14.00;;;;;;;2.21;99.79;101027.13;10468107;28;20536;-61
2023/12/08 04:20:54;;;;;;;21.70;13.65;;;;;;;2.22;100.00;101044.13;10473277;28;20055;-61
2023/12/08 04:26:20;;;;;;;23.58;13.55;;;;;;;2.22;98.78;101040.72;10472975;28;20057;-62
2023/12/08 04:31:42;;;;;;;24.45;14.07;;;;;;;2.20;98.69;101030.50;10486303;28;20051;-62
2023/12/08 04:37:04;;;;;;;21.30;13.57;;;;;;;2.23;99.51;101025.44;10465566;28;20052;-61
2023/12/08 04:42:26;;;;;;;20.15;13.15;;;;;;;2.22;99.49;101023.72;10468479;28;20073;-61
2023/12/08 04:47:48;;;;;;;26.52;13.63;;;;;;;2.22;99.84;101010.94;10473915;28;20056;-61
2023/12/08 04:53:09;;;;;;;24.55;14.32;;;;;;;2.23;97.79;101004.16;10471554;28;20194;-61
2023/12/08 04:58:31;;;;;;;22.58;13.43;;;;;;;2.25;99.95;101011.00;10474501;28;20063;-61
2023/12/08 05:03:53;;;;;;;21.20;13.00;;;;;;;2.26;100.00;101005.03;10470473;28;20064;-61
2023/12/08 05:09:14;;;;;;;22.92;13.82;;;;;;;2.23;99.37;100992.25;10469973;28;20469;-61
2023/12/08 05:14:36;;;;;;;19.00;12.48;;;;;;;2.22;100.00;100985.44;10457545;28;20611;-61
2023/12/08 05:19:58;;;;;;;21.38;12.98;;;;;;;2.24;98.85;100983.75;10472990;28;20040;-61
2023/12/08 05:25:22;;;;;;;21.98;12.63;;;;;;;2.24;99.85;100970.97;10454227;28;20194;-61
2023/12/08 05:30:44;;;;;;;19.45;12.20;;;;;;;2.25;98.14;100967.59;10470375;28;20416;-61
2023/12/08 05:36:06;;;;;;;20.40;12.75;;;;;;;2.27;99.08;100965.06;10469109;28;20048;-61
2023/12/08 05:41:27;;;;;;;21.10;12.80;;;;;;;2.27;98.34;100960.78;10472769;28;20072;-62
2023/12/08 05:46:49;;;;;;;20.75;12.88;;;;;;;2.28;98.84;100967.59;10466160;28;20069;-61
2023/12/08 05:52:11;;;;;;;21.83;13.60;;;;;;;2.33;100.00;100959.97;10469123;28;20139;-62
2023/12/08 05:57:32;;;;;;;22.98;13.13;;;;;;;2.29;98.16;100948.03;10468179;28;20060;-61
2023/12/08 06:02:54;;;;;;;20.75;12.60;;;;;;;2.31;98.36;100948.91;10471761;28;20697;-61
2023/12/08 06:08:16;;;;;;;19.42;12.93;;;;;;;2.32;99.61;100942.94;10476856;28;20048;-61
2023/12/08 06:13:38;;;;;;;18.92;12.32;;;;;;;2.33;99.89;100937.84;10478553;28;20634;-61
2023/12/08 06:18:59;;;;;;;18.73;12.43;;;;;;;2.32;99.47;100932.72;10481202;28;20059;-61
2023/12/08 06:24:21;;;;;;;23.65;12.73;;;;;;;2.29;97.65;100936.13;10480320;28;20507;-61
2023/12/08 06:29:43;;;;;;;22.08;12.38;;;;;;;2.27;98.91;100930.16;10482274;28;20382;-60
2023/12/08 06:35:05;;;;;;;22.08;12.77;;;;;;;2.26;98.99;100933.56;10474609;28;20072;-61
2023/12/08 06:40:27;;;;;;;20.98;13.13;;;;;;;2.25;99.79;100931.88;10483181;28;20051;-62
2023/12/08 06:45:48;;;;;;;24.77;13.55;;;;;;;2.24;100.00;100919.06;10475600;28;20044;-62
2023/12/08 06:51:10;;;;;;;20.75;13.10;;;;;;;2.16;100.00;100911.41;10491587;28;20698;-60
2023/12/08 06:56:32;;;;;;;21.02;13.10;;;;;;;2.12;100.00;100919.03;10479630;28;20049;-61
2023/12/08 07:01:53;;;;;;;24.45;14.07;;;;;;;2.06;100.00;100909.63;10475353;28;20078;-61
2023/12/08 07:07:15;;;;;;;21.52;13.32;;;;;;;2.02;100.00;100907.91;10470686;28;20133;-61
2023/12/08 07:12:37;;;;;;;23.55;13.80;;;;;;;1.96;100.00;100916.38;10473496;28;20041;-61
2023/12/08 07:17:58;;;;;;;26.30;14.88;;;;;;;1.94;100.00;100918.06;10470277;28;20064;-61
2023/12/08 07:23:20;;;;;;;24.30;14.65;;;;;;;1.91;100.00;100933.34;10472268;28;20048;-60
2023/12/08 07:28:42;;;;;;;27.52;14.85;;;;;;;1.81;100.00;100928.19;10474944;28;20390;-61
2023/12/08 07:34:04;;;;;;;24.67;15.60;;;;;;;1.76;100.00;100934.94;10466584;28;20044;-61
2023/12/08 07:39:26;;;;;;;27.85;16.27;;;;;;;1.75;100.00;100940.88;10460250;28;20504;-61
2023/12/08 07:44:47;;;;;;;24.83;15.70;;;;;;;1.70;100.00;100940.00;10465138;28;20059;-62
2023/12/08 07:50:09;;;;;;;32.63;17.45;;;;;;;1.73;100.00;100940.03;10468704;28;20051;-62
2023/12/08 07:55:31;;;;;;;26.73;17.35;;;;;;;1.74;100.00;100934.09;10487620;28;20431;-63
2023/12/08 08:00:52;;;;;;;27.98;17.08;;;;;;;1.74;100.00;100929.81;10466623;28;20067;-60
2023/12/08 08:06:14;;;;;;;30.00;17.35;;;;;;;1.76;100.00;100927.28;10469477;28;20061;-60
2023/12/08 08:11:36;;;;;;;30.60;17.30;;;;;;;1.72;100.00;100925.59;10472469;28;20051;-61
2023/12/08 08:16:58;;;;;;;30.05;17.30;;;;;;;1.74;100.00;100926.44;10470312;28;20053;-61
2023/12/08 08:22:20;;;;;;;29.95;17.48;;;;;;;1.73;100.00;100920.50;10471012;28;20040;-61
2023/12/08 08:27:53;;;;;;;27.65;17.48;;;;;;;1.74;100.00;100926.44;10459000;28;20056;-61
2023/12/08 08:33:15;;;;;;;32.08;18.85;;;;;;;1.74;100.00;100927.28;10475965;28;20504;-61
2023/12/08 08:38:37;;;;;;;34.42;18.88;;;;;;;1.76;100.00;100929.84;10468843;28;20048;-62
2023/12/08 08:43:59;;;;;;;36.90;19.30;;;;;;;1.78;100.00;100953.66;10470970;28;20043;-63
2023/12/08 08:49:22;;;;;;;31.60;19.08;;;;;;;1.79;100.00;100955.38;10470279;28;20485;-63
2023/12/08 08:54:44;;;;;;;29.67;19.08;;;;;;;1.85;100.00;100945.22;10468889;28;20050;-63
2023/12/08 09:00:11;;;;;;;30.17;18.77;;;;;;;1.86;100.00;100952.03;10485613;28;20056;-63
2023/12/08 09:05:36;;;;;;;36.67;21.02;;;;;;;1.81;100.00;100936.69;10469898;28;20052;-63
2023/12/08 09:10:57;;;;;;;37.55;20.33;;;;;;;1.84;100.00;100934.16;10468583;28;20098;-63
2023/12/08 09:16:19;;;;;;;37.85;20.67;;;;;;;1.88;100.00;100935.03;10470929;28;20048;-64
2023/12/08 09:21:41;;;;;;;38.33;21.38;;;;;;;1.87;100.00;100939.28;10476521;28;20048;-63
2023/12/08 09:27:14;;;;;;;35.13;20.00;;;;;;;1.87;100.00;100934.19;10467020;28;20055;-63
2023/12/08 09:32:36;;;;;;;35.60;20.42;;;;;;;1.90;100.00;100918.88;10470662;28;20075;-63
2023/12/08 09:37:57;;;;;;;40.63;22.80;;;;;;;1.93;100.00;100928.25;10475754;28;20519;-63
2023/12/08 09:43:28;;;;;;;38.75;20.90;;;;;;;1.97;100.00;100904.47;10478492;28;20047;-64
2023/12/08 09:48:55;;;;;;;57.38;22.83;;;;;;;1.96;100.00;100897.66;10475311;28;20083;-64
2023/12/08 09:54:19;;;;;;;39.42;20.80;;;;;;;1.95;100.00;100912.13;10475087;28;20162;-65
2023/12/08 09:59:42;;;;;;;39.42;22.10;;;;;;;1.99;100.00;100913.00;10476603;28;20048;-64
2023/12/08 10:05:04;;;;;;;36.72;21.40;;;;;;;2.01;100.00;100921.53;10492760;28;20087;-64
2023/12/08 10:10:26;;;;;;;34.28;20.17;;;;;;;2.03;100.00;100932.59;10478580;28;20045;-64
2023/12/08 10:15:48;;;;;;;39.95;21.23;;;;;;;2.06;100.00;100924.94;10470501;28;20520;-64
2023/12/08 10:21:15;;;;;;;35.72;21.17;;;;;;;2.09;100.00;100909.63;10460381;28;20045;-64
2023/12/08 10:26:37;;;;;;;35.08;21.10;;;;;;;2.10;100.00;100905.41;10477759;28;20147;-64
2023/12/08 10:32:01;;;;;;;37.30;22.33;;;;;;;2.13;100.00;100906.25;10479257;28;20042;-65
2023/12/08 10:37:23;;;;;;;40.83;23.33;;;;;;;2.13;100.00;100896.06;10486747;28;20475;-65
2023/12/08 10:42:47;;;;;;;43.20;22.95;;;;;;;2.15;100.00;100884.16;10483138;28;20053;-64
2023/12/08 10:48:10;;;;;;;26.13;15.20;;;;;;;2.16;100.00;100891.00;10485761;28;20144;-64
2023/12/08 10:53:31;;;;;;;41.40;22.25;;;;;;;2.14;100.00;100872.25;10478700;28;20061;-65
2023/12/08 10:59:01;;;;;;;37.22;22.45;;;;;;;2.18;100.00;100884.16;10482775;28;20053;-65
2023/12/08 11:04:26;;;;;;;43.63;21.90;;;;;;;2.17;100.00;100887.56;10470454;28;20052;-65
2023/12/08 11:09:51;;;;;;;46.58;21.40;;;;;;;2.15;100.00;100868.84;10484785;28;20608;-65
2023/12/08 11:15:18;;;;;;;38.05;21.58;;;;;;;2.23;100.00;100881.66;10468302;28;20060;-65
2023/12/08 11:20:40;;;;;;;36.65;21.40;;;;;;;2.28;100.00;100870.63;10482321;28;20504;-64
2023/12/08 11:26:34;;;;;;;36.38;21.83;;;;;;;2.34;100.00;100878.31;10475193;28;20489;-64
2023/12/08 11:32:40;;;;;;;39.17;21.85;;;;;;;2.44;100.00;100876.63;10462329;28;20052;-64
2023/12/08 11:38:03;;;;;;;38.65;21.10;;;;;;;2.43;100.00;100885.13;10446899;28;20060;-64
2023/12/08 11:43:26;;;;;;;38.55;21.42;;;;;;;2.44;100.00;100863.84;10480953;28;20497;-64
2023/12/08 11:48:51;;;;;;;37.60;20.52;;;;;;;2.44;100.00;100864.72;10450194;28;20056;-62
2023/12/08 11:54:15;;;;;;;34.70;20.85;;;;;;;2.45;100.00;100863.03;10464556;28;20416;-63
2023/12/08 11:59:41;;;;;;;34.38;20.60;;;;;;;2.45;100.00;100856.22;10478443;28;20063;-62
2023/12/08 12:05:04;;;;;;;33.10;20.67;;;;;;;2.49;100.00;100862.19;10479822;28;20048;-62
2023/12/08 12:10:32;;;;;;;35.38;19.80;;;;;;;2.50;100.00;100859.63;10468446;28;20068;-62
2023/12/08 12:15:54;;;;;;;32.85;20.02;;;;;;;2.52;100.00;100855.38;10472608;28;20052;-60
2023/12/08 12:21:16;;;;;;;32.83;19.73;;;;;;;2.54;100.00;100840.94;10456808;28;20051;-61
2023/12/08 12:26:38;;;;;;;33.35;19.55;;;;;;;2.57;100.00;100856.25;10470328;28;20052;-61
2023/12/08 12:32:00;;;;;;;35.45;20.40;;;;;;;2.61;100.00;100859.66;10468384;28;20041;-60
2023/12/08 12:37:22;;;;;;;35.05;18.83;;;;;;;2.60;100.00;100853.69;10466191;28;20041;-60
2023/12/08 12:42:46;;;;;;;32.55;18.98;;;;;;;2.60;100.00;100853.69;10468061;28;20052;-60
2023/12/08 12:48:08;;;;;;;36.08;20.10;;;;;;;2.64;100.00;100860.50;10466591;28;20051;-60
2023/12/08 12:53:31;;;;;;;35.70;18.15;;;;;;;2.62;100.00;100861.38;10472514;28;20401;-60
2023/12/08 12:59:09;;;;;;;31.50;18.48;;;;;;;2.65;100.00;100857.13;10460634;28;20067;-60
2023/12/08 13:04:31;;;;;;;32.85;19.67;;;;;;;2.65;100.00;100849.47;10471227;28;20406;-59
2023/12/08 13:09:53;;;;;;;32.58;19.05;;;;;;;2.67;100.00;100850.31;10469283;28;20052;-60
2023/12/08 13:15:17;;;;;;;33.17;18.85;;;;;;;2.71;100.00;100852.00;10477952;28;20381;-59
2023/12/08 13:20:39;;;;;;;35.15;19.55;;;;;;;2.71;100.00;100867.34;10485522;28;20056;-59
2023/12/08 13:26:01;;;;;;;30.88;18.17;;;;;;;2.70;100.00;100857.97;10476802;28;20052;-59
2023/12/08 13:31:23;;;;;;;34.55;19.83;;;;;;;2.74;100.00;100863.94;10493495;28;20056;-59
2023/12/08 13:36:44;;;;;;;36.20;19.13;;;;;;;2.73;100.00;100875.00;10474900;28;20527;-58
2023/12/08 13:42:07;;;;;;;36.92;19.38;;;;;;;2.74;100.00;100872.47;10475066;28;20144;-59
2023/12/08 13:47:29;;;;;;;33.75;20.17;;;;;;;2.78;100.00;100863.94;10472776;28;20059;-58
2023/12/08 13:52:51;;;;;;;37.00;20.65;;;;;;;2.78;100.00;100858.81;10477351;28;20394;-59
2023/12/08 13:58:12;;;;;;;44.22;19.77;;;;;;;2.77;100.00;100859.69;10478919;28;20075;-59
2023/12/08 14:03:34;;;;;;;37.80;20.23;;;;;;;2.78;100.00;100863.09;10477604;28;20041;-59
2023/12/08 14:08:56;;;;;;;37.30;21.05;;;;;;;2.75;100.00;100874.16;10478370;28;20055;-59
2023/12/08 14:14:18;;;;;;;35.47;20.30;;;;;;;2.77;100.00;100877.56;10475473;28;20040;-59
2023/12/08 14:19:39;;;;;;;39.22;19.02;;;;;;;2.80;100.00;100882.69;10493596;28;20079;-59
2023/12/08 14:25:01;;;;;;;39.67;21.13;;;;;;;2.79;100.00;100881.00;10479907;28;20059;-59
2023/12/08 14:30:23;;;;;;;40.95;21.10;;;;;;;2.81;100.00;100881.84;10480818;28;20148;-59
2023/12/08 14:35:44;;;;;;;42.33;21.60;;;;;;;2.79;100.00;100881.00;10481968;28;20127;-59
2023/12/08 14:41:07;;;;;;;45.35;22.58;;;;;;;2.80;100.00;100887.78;10488051;28;20041;-59
2023/12/08 14:46:30;;;;;;;43.10;23.08;;;;;;;2.81;100.00;100889.50;10488206;28;20076;-59
2023/12/08 14:51:51;;;;;;;48.42;23.67;;;;;;;2.85;100.00;100893.78;10481578;28;20052;-59
2023/12/08 14:57:13;;;;;;;47.50;22.35;;;;;;;2.88;100.00;100903.13;10466326;28;23863;-59
2023/12/08 15:02:36;;;;;;;53.38;24.58;;;;;;;2.88;100.00;100906.56;10475207;28;20056;-59
2023/12/08 15:07:57;;;;;;;51.92;22.52;;;;;;;2.87;100.00;100907.41;10474425;28;20058;-58
2023/12/08 15:13:19;;;;;;;55.30;23.17;;;;;;;2.89;100.00;100908.25;10474729;28;20485;-59
2023/12/08 15:18:41;;;;;;;57.47;25.38;;;;;;;2.93;100.00;100912.50;10466372;28;20147;-59
2023/12/08 15:24:03;;;;;;;60.70;25.60;;;;;;;2.95;100.00;100922.72;10477946;28;20076;-59
2023/12/08 15:29:24;;;;;;;55.75;25.90;;;;;;;2.94;100.00;100916.78;10487653;28;20072;-59
2023/12/08 15:34:46;;;;;;;53.17;26.52;;;;;;;2.96;100.00;100925.31;10484332;28;20051;-59
2023/12/08 15:40:09;;;;;;;70.57;28.70;;;;;;;2.94;100.00;100934.69;10476186;28;20497;-59
2023/12/08 15:45:31;;;;;;;68.88;28.75;;;;;;;2.93;100.00;100927.84;10469600;28;20045;-59
2023/12/08 15:50:53;;;;;;;77.18;30.23;;;;;;;2.97;100.00;100942.34;10472926;28;20060;-59
2023/12/08 15:56:15;;;;;;;72.47;31.15;;;;;;;2.95;100.00;100941.47;10475104;28;20049;-59
2023/12/08 16:01:36;;;;;;;71.45;30.45;;;;;;;2.99;100.00;100939.78;10470094;28;20051;-59
2023/12/08 16:07:00;;;;;;;81.15;29.60;;;;;;;2.99;100.00;100940.66;10462013;28;20132;-59
2023/12/08 16:12:22;;;;;;;85.22;30.08;;;;;;;3.01;100.00;100941.50;10469586;28;20064;-59
2023/12/08 16:17:44;;;;;;;79.90;31.40;;;;;;;3.02;100.00;100950.88;10464250;28;20052;-59
2023/12/08 16:23:06;;;;;;;76.05;32.40;;;;;;;3.02;100.00;100938.09;10472487;28;20059;-59
2023/12/08 16:28:28;;;;;;;85.22;31.00;;;;;;;3.08;100.00;100934.69;10470501;28;20130;-59
2023/12/08 16:33:50;;;;;;;83.75;31.35;;;;;;;3.08;100.00;100945.78;10469172;28;20139;-59
2023/12/08 16:39:15;;;;;;;89.07;32.83;;;;;;;3.12;100.00;100943.22;10477554;28;20047;-59
2023/12/08 16:44:37;;;;;;;100.30;32.92;;;;;;;3.15;100.00;100945.78;10481197;28;20076;-60
2023/12/08 16:49:58;;;;;;;111.47;33.38;;;;;;;3.18;100.00;100943.22;10473999;28;20127;-59
2023/12/08 16:55:20;;;;;;;104.32;34.42;;;;;;;3.19;100.00;100953.47;10475466;28;20044;-59
2023/12/08 17:00:42;;;;;;;103.70;31.10;;;;;;;3.20;100.00;100949.19;10467935;28;20048;-60
2023/12/08 17:06:03;;;;;;;111.90;33.90;;;;;;;3.21;100.00;100961.97;10476233;28;20082;-59
2023/12/08 17:11:25;;;;;;;98.55;31.13;;;;;;;3.22;100.00;100956.03;10475473;28;20505;-59
2023/12/08 17:16:47;;;;;;;106.20;34.55;;;;;;;3.24;100.00;100961.16;10462077;28;20041;-60
2023/12/08 17:22:08;;;;;;;101.65;35.70;;;;;;;3.24;100.00;100963.72;10467601;28;20055;-60
2023/12/08 17:27:31;;;;;;;120.18;35.65;;;;;;;3.23;100.00;100964.53;10461383;28;20060;-59
2023/12/08 17:32:53;;;;;;;107.20;36.72;;;;;;;3.26;100.00;100974.78;10465022;28;20041;-59
2023/12/08 17:38:15;;;;;;;118.40;34.42;;;;;;;3.30;100.00;100966.25;10462971;28;20577;-60
2023/12/08 17:43:37;;;;;;;114.10;34.53;;;;;;;3.32;100.00;100969.66;10463337;28;20437;-60
2023/12/08 17:48:59;;;;;;;126.88;36.25;;;;;;;3.33;100.00;100979.06;10465824;28;20041;-59
2023/12/08 17:54:21;;;;;;;118.45;36.22;;;;;;;3.34;100.00;100988.41;10472081;28;20051;-58
2023/12/08 17:59:42;;;;;;;130.07;35.60;;;;;;;3.37;100.00;100998.69;10473232;28;20060;-60
2023/12/08 18:05:05;;;;;;;118.82;37.63;;;;;;;3.40;100.00;101003.78;10461765;28;20041;-60
2023/12/08 18:10:27;;;;;;;120.20;37.33;;;;;;;3.42;100.00;100992.72;10479708;28;20055;-60
2023/12/08 18:15:48;;;;;;;103.45;34.10;;;;;;;3.42;100.00;101002.09;10478942;28;20048;-60
2023/12/08 18:21:10;;;;;;;108.70;36.47;;;;;;;3.41;100.00;100997.81;10471480;28;20056;-59
2023/12/08 18:26:33;;;;;;;133.70;37.08;;;;;;;3.44;100.00;100993.56;10478803;28;20048;-59
2023/12/08 18:31:55;;;;;;;99.65;35.22;;;;;;;3.48;100.00;100995.25;10474594;28;20058;-60
2023/12/08 18:37:17;;;;;;;113.13;33.33;;;;;;;3.52;100.00;100998.66;10486997;28;20070;-60
2023/12/08 18:42:38;;;;;;;97.22;33.80;;;;;;;3.54;100.00;101002.09;10473573;28;20059;-60
2023/12/08 18:48:00;;;;;;;118.22;36.10;;;;;;;3.54;100.00;101000.41;10478664;28;20558;-60
2023/12/08 18:53:22;;;;;;;125.85;32.63;;;;;;;3.57;100.00;101007.22;10476058;28;20036;-60
2023/12/08 18:58:47;;;;;;;90.90;34.78;;;;;;;3.59;100.00;100995.28;10472133;28;20083;-60
2023/12/08 19:04:08;;;;;;;75.80;26.13;;;;;;;3.62;100.00;101010.63;10476551;28;20052;-60
2023/12/08 19:09:30;;;;;;;86.65;32.42;;;;;;;3.62;100.00;100997.84;10475805;28;20056;-59
2023/12/08 19:14:52;;;;;;;139.43;33.45;;;;;;;3.66;100.00;100997.00;10471546;28;20052;-59
2023/12/08 19:20:14;;;;;;;119.07;35.95;;;;;;;3.65;100.00;100997.84;10470818;28;20051;-59
2023/12/08 19:25:35;;;;;;;105.90;32.20;;;;;;;3.73;100.00;101003.81;10473001;28;20071;-59
2023/12/08 19:30:57;;;;;;;157.30;34.80;;;;;;;3.78;100.00;101012.34;10474906;28;20096;-59
2023/12/08 19:36:19;;;;;;;96.28;32.55;;;;;;;3.80;100.00;101005.53;10476229;28;20052;-59
2023/12/08 19:41:40;;;;;;;93.90;33.95;;;;;;;3.86;100.00;101005.53;10464625;28;20061;-60
2023/12/08 19:47:02;;;;;;;79.32;29.95;;;;;;;3.88;100.00;100983.34;10476356;28;20478;-60
2023/12/08 19:52:24;;;;;;;74.75;30.40;;;;;;;3.93;100.00;101002.13;10474905;28;20094;-59
2023/12/08 19:57:46;;;;;;;73.05;28.80;;;;;;;3.98;100.00;101002.97;10464432;28;20125;-60
2023/12/08 20:03:09;;;;;;;87.75;32.33;;;;;;;4.03;100.00;101016.59;10471541;28;20045;-59
2023/12/08 20:08:31;;;;;;;99.05;30.73;;;;;;;4.07;100.00;101020.88;10473774;28;20458;-60
2023/12/08 20:13:53;;;;;;;81.68;29.67;;;;;;;4.08;100.00;101017.47;10476566;28;20127;-60
2023/12/08 20:19:14;;;;;;;75.80;31.35;;;;;;;4.11;100.00;101017.47;10469957;28;20044;-60
2023/12/08 20:24:36;;;;;;;125.72;32.47;;;;;;;4.16;100.00;101030.28;10472908;28;20406;-60
2023/12/08 20:29:58;;;;;;;134.68;33.05;;;;;;;4.18;100.00;101018.28;10474875;28;20056;-59
2023/12/08 20:35:20;;;;;;;84.68;31.60;;;;;;;4.22;100.00;101015.75;10486171;28;20052;-60
2023/12/08 20:40:41;;;;;;;95.90;31.55;;;;;;;4.28;100.00;101017.44;10468220;28;20147;-60
2023/12/08 20:46:04;;;;;;;95.55;32.13;;;;;;;4.34;100.00;101020.81;10471657;28;20044;-60
2023/12/08 20:51:26;;;;;;;94.55;30.95;;;;;;;4.40;100.00;101023.38;10464396;28;20143;-59
2023/12/08 20:56:48;;;;;;;89.72;30.88;;;;;;;4.43;100.00;101020.81;10471162;28;20103;-60
2023/12/08 21:02:10;;;;;;;107.72;30.77;;;;;;;4.44;100.00;101025.09;10457454;28;20131;-60
2023/12/08 21:07:32;;;;;;;91.40;31.20;;;;;;;4.50;100.00;101037.91;10466428;28;20140;-60
2023/12/08 21:12:54;;;;;;;105.20;29.85;;;;;;;4.53;100.00;101035.31;10470943;28;20041;-60
2023/12/08 21:18:16;;;;;;;83.82;28.20;;;;;;;4.59;100.00;101037.00;10471110;28;20048;-60
2023/12/08 21:23:38;;;;;;;83.47;28.30;;;;;;;4.64;100.00;101035.28;10476679;28;20048;-60
2023/12/08 21:29:02;;;;;;;83.53;30.88;;;;;;;4.72;100.00;101041.25;10468407;28;20521;-60
2023/12/08 21:34:23;;;;;;;72.82;27.35;;;;;;;4.74;100.00;101042.94;10492134;28;20055;-59
2023/12/08 21:39:46;;;;;;;111.35;30.90;;;;;;;4.78;100.00;101044.63;10482165;28;20098;-60
2023/12/08 21:45:10;;;;;;;138.02;31.23;;;;;;;4.83;100.00;101042.06;10474696;28;20124;-59
2023/12/08 21:50:32;;;;;;;118.45;29.98;;;;;;;4.87;100.00;101039.47;10477136;28;20412;-58
2023/12/08 21:55:54;;;;;;;89.57;28.83;;;;;;;4.90;100.00;101042.03;10478341;28;20044;-58
2023/12/08 22:01:15;;;;;;;80.35;28.40;;;;;;;4.95;100.00;101045.44;10474480;28;20412;-59
2023/12/08 22:06:37;;;;;;;210.45;35.60;;;;;;;5.03;100.00;101051.41;10491906;28;20075;-61
2023/12/08 22:11:59;;;;;;;106.90;29.27;;;;;;;5.03;100.00;101040.28;10484510;28;20056;-59
2023/12/08 22:17:23;;;;;;;111.85;31.08;;;;;;;5.04;100.00;101040.28;10472691;28;20646;-60
2023/12/08 22:22:46;;;;;;;87.63;28.98;;;;;;;5.07;100.00;101030.00;10477553;28;20094;-60
2023/12/08 22:28:08;;;;;;;109.80;35.28;;;;;;;5.15;100.00;101057.34;10473840;28;20048;-61
2023/12/08 22:33:31;;;;;;;103.80;32.53;;;;;;;5.22;100.00;101067.53;10477335;28;20055;-60
2023/12/08 22:38:54;;;;;;;187.88;35.55;;;;;;;5.26;100.00;101058.97;10478956;28;20489;-61
2023/12/08 22:44:16;;;;;;;99.78;30.60;;;;;;;5.28;100.00;101064.09;10472489;28;20065;-60
2023/12/08 22:49:38;;;;;;;145.82;33.30;;;;;;;5.33;100.00;101062.38;10475755;28;20126;-60
2023/12/08 22:54:59;;;;;;;104.10;32.95;;;;;;;5.39;100.00;101064.88;10473894;28;20409;-58
2023/12/08 23:00:24;;;;;;;207.57;38.28;;;;;;;5.45;100.00;101060.59;10474446;28;20048;-58
2023/12/08 23:05:45;;;;;;;115.97;33.03;;;;;;;5.50;100.00;101068.25;10471250;28;20429;-58
2023/12/08 23:11:08;;;;;;;117.63;32.88;;;;;;;5.51;100.00;101070.81;10480838;28;20063;-61
2023/12/08 23:16:30;;;;;;;115.65;33.03;;;;;;;5.57;100.00;101070.78;10473049;28;20036;-60
2023/12/08 23:21:51;;;;;;;155.60;33.92;;;;;;;5.60;100.00;101073.34;10474171;28;20055;-58
2023/12/08 23:27:13;;;;;;;112.22;32.50;;;;;;;5.66;100.00;101069.88;10471687;28;20052;-58
2023/12/08 23:32:35;;;;;;;129.85;34.25;;;;;;;5.68;100.00;101063.88;10471501;28;20118;-60
2023/12/08 23:37:57;;;;;;;128.27;32.75;;;;;;;5.71;100.00;101057.88;10477557;28;20058;-61
2023/12/08 23:43:19;;;;;;;104.20;34.88;;;;;;;5.77;100.00;101068.06;10475657;28;20554;-61
2023/12/08 23:48:40;;;;;;;120.00;34.50;;;;;;;5.81;100.00;101055.22;10475994;28;20109;-60
2023/12/08 23:54:03;;;;;;;140.40;32.45;;;;;;;5.83;100.00;101047.53;10473911;28;20040;-61
2023/12/08 23:59:24;;;;;;;111.63;33.22;;;;;;;5.87;100.00;101050.09;10476648;28;20439;-61
